Time;durP1;ratioP1;P1;durP2;ratioP2;P2;SDS_P1;SDS_P2;PMS_P1;PMS_P2;Temp;Humidity;BMP_temperature;BMP_pressure;BME280_temperature;BME280_humidity;BME280_pressure;Samples;Min_cycle;Max_cycle;Signal;HPM_P1;HPM_P2
2023/12/15 00:00:55;;;;;;;20.30;15.88;;;4.90;1.00;;;;;;5200202;27;20290;-82
2023/12/15 00:03:24;;;;;;;19.45;15.20;;;4.90;1.00;;;;;;5201947;27;20230;-83
2023/12/15 00:05:51;;;;;;;17.80;13.55;;;4.90;1.00;;;;;;5206114;27;21089;-81
2023/12/15 00:08:20;;;;;;;27.83;17.38;;;4.90;1.00;;;;;;5205648;27;20233;-83
2023/12/15 00:10:48;;;;;;;20.55;14.88;;;4.80;1.00;;;;;;5199775;27;21044;-82
2023/12/15 00:13:15;;;;;;;19.98;15.65;;;4.80;1.00;;;;;;5203697;27;20248;-83
2023/12/15 00:15:44;;;;;;;22.80;16.90;;;4.80;1.00;;;;;;5200221;27;20234;-83
2023/12/15 00:18:11;;;;;;;19.52;14.50;;;4.70;1.00;;;;;;5189353;27;20230;-81
2023/12/15 00:20:38;;;;;;;21.50;16.25;;;4.70;1.00;;;;;;5208584;27;20230;-83
2023/12/15 00:23:09;;;;;;;18.80;15.13;;;4.80;1.00;;;;;;5200227;27;20225;-81
2023/12/15 00:25:38;;;;;;;23.90;16.02;;;4.80;1.00;;;;;;5202676;27;20784;-81
2023/12/15 00:28:06;;;;;;;18.10;12.30;;;4.80;1.00;;;;;;5197636;27;20237;-83
2023/12/15 00:30:33;;;;;;;17.88;13.15;;;4.80;1.00;;;;;;5193973;27;20254;-82
2023/12/15 00:33:02;;;;;;;14.55;11.77;;;4.70;1.00;;;;;;5206649;27;20313;-83
2023/12/15 00:35:33;;;;;;;18.38;12.13;;;4.70;1.00;;;;;;5206848;27;20226;-82
2023/12/15 00:38:02;;;;;;;20.42;11.93;;;4.80;1.00;;;;;;5181771;27;20974;-82
2023/12/15 00:40:31;;;;;;;15.18;12.20;;;4.80;1.00;;;;;;5202545;27;20220;-83
2023/12/15 00:43:02;;;;;;;13.32;12.02;;;4.70;1.00;;;;;;5203213;27;20230;-82
2023/12/15 00:45:32;;;;;;;20.80;12.63;;;4.70;1.00;;;;;;5208101;27;20242;-80
2023/12/15 00:47:59;;;;;;;15.40;11.80;;;4.70;1.00;;;;;;5197588;27;20237;-81
2023/12/15 00:50:28;;;;;;;16.60;11.63;;;4.60;1.00;;;;;;5201029;27;20236;-82
2023/12/15 00:52:58;;;;;;;13.57;10.98;;;4.60;1.00;;;;;;5211376;27;20209;-81
2023/12/15 00:55:25;;;;;;;12.02;10.80;;;4.70;1.00;;;;;;5206577;27;20224;-81
2023/12/15 00:57:55;;;;;;;13.45;10.68;;;4.70;1.00;;;;;;5208926;27;20297;-81
2023/12/15 01:00:23;;;;;;;12.60;10.85;;;4.70;1.00;;;;;;5206817;27;20228;-81
2023/12/15 01:02:51;;;;;;;16.98;12.00;;;4.70;1.00;;;;;;5200235;27;20309;-82
2023/12/15 01:05:19;;;;;;;15.63;11.20;;;4.70;1.00;;;;;;5199554;27;20233;-79
2023/12/15 01:08:06;;;;;;;14.70;11.60;;;4.70;1.00;;;;;;5195005;27;20293;-82
2023/12/15 01:10:36;;;;;;;13.52;10.88;;;4.80;1.00;;;;;;5201972;27;20213;-81
2023/12/15 01:13:03;;;;;;;13.57;10.77;;;4.80;1.00;;;;;;5200436;27;20290;-81
2023/12/15 01:15:32;;;;;;;14.80;11.15;;;4.80;1.00;;;;;;5200097;27;20228;-81
2023/12/15 01:17:59;;;;;;;13.88;10.70;;;4.80;1.00;;;;;;5203567;27;20256;-80
2023/12/15 01:20:26;;;;;;;13.25;11.75;;;4.80;1.00;;;;;;5198515;27;20331;-80
2023/12/15 01:22:55;;;;;;;14.57;10.95;;;4.80;1.00;;;;;;5196703;27;21011;-81
2023/12/15 01:25:22;;;;;;;12.48;10.60;;;4.80;1.00;;;;;;5200244;27;20273;-80
2023/12/15 01:27:49;;;;;;;15.25;10.60;;;4.80;1.00;;;;;;5199147;27;20306;-80
2023/12/15 01:30:17;;;;;;;16.95;11.45;;;4.90;1.00;;;;;;5199003;27;20306;-80
2023/12/15 01:32:45;;;;;;;12.70;10.90;;;4.90;1.00;;;;;;5192936;27;20226;-82
2023/12/15 01:35:14;;;;;;;14.60;11.40;;;5.00;1.00;;;;;;5200868;27;21040;-79
2023/12/15 01:37:41;;;;;;;13.90;10.95;;;5.00;1.00;;;;;;5197900;27;20317;-81
2023/12/15 01:40:09;;;;;;;14.20;11.80;;;5.00;1.00;;;;;;5203128;27;20228;-81
2023/12/15 01:42:36;;;;;;;12.98;10.93;;;5.00;1.00;;;;;;5199823;27;20289;-82
2023/12/15 01:45:04;;;;;;;21.60;11.10;;;4.90;1.00;;;;;;5195658;27;20220;-83
2023/12/15 01:47:31;;;;;;;14.18;10.55;;;4.90;1.00;;;;;;5194275;27;21111;-80
2023/12/15 01:50:00;;;;;;;12.30;9.85;;;4.80;1.00;;;;;;5198466;27;20254;-79
2023/12/15 01:52:29;;;;;;;14.25;10.85;;;4.80;1.00;;;;;;5181406;27;20268;-81
2023/12/15 01:54:56;;;;;;;16.10;11.30;;;4.80;1.00;;;;;;5197267;27;20330;-80
2023/12/15 01:57:23;;;;;;;13.93;11.43;;;4.80;1.00;;;;;;5198332;27;20221;-81
2023/12/15 01:59:50;;;;;;;14.77;10.35;;;4.70;1.00;;;;;;5200551;27;20225;-81
2023/12/15 02:02:17;;;;;;;14.52;11.70;;;4.80;1.00;;;;;;5198034;27;20232;-82
2023/12/15 02:04:44;;;;;;;14.18;11.25;;;4.80;1.00;;;;;;5194738;27;20316;-80
2023/12/15 02:07:12;;;;;;;22.77;12.32;;;4.80;1.00;;;;;;5198050;27;20225;-83
2023/12/15 02:09:40;;;;;;;14.20;12.40;;;4.80;1.00;;;;;;5191964;27;20329;-81
2023/12/15 02:12:08;;;;;;;15.63;11.25;;;4.80;1.00;;;;;;5195881;27;20972;-83
2023/12/15 02:14:38;;;;;;;13.90;11.45;;;4.70;1.00;;;;;;5192159;27;20259;-83
2023/12/15 02:17:06;;;;;;;12.98;11.30;;;4.60;1.00;;;;;;5196846;27;20300;-82
2023/12/15 02:19:35;;;;;;;12.65;10.00;;;4.50;1.00;;;;;;5192996;27;20257;-83
2023/12/15 02:22:02;;;;;;;15.20;11.30;;;4.40;1.00;;;;;;5194252;27;20307;-83
2023/12/15 02:24:30;;;;;;;14.40;11.32;;;4.40;1.00;;;;;;5194116;27;20233;-83
2023/12/15 02:26:59;;;;;;;12.02;10.75;;;4.30;1.00;;;;;;5193077;27;20253;-83
2023/12/15 02:29:27;;;;;;;16.30;11.20;;;4.10;1.00;;;;;;5191189;27;20238;-82
2023/12/15 02:31:54;;;;;;;17.88;11.43;;;4.10;1.00;;;;;;5194926;27;20229;-82
2023/12/15 02:34:21;;;;;;;27.08;21.13;;;4.00;1.00;;;;;;5195396;27;20331;-83
2023/12/15 02:36:49;;;;;;;21.48;12.10;;;4.00;1.00;;;;;;5194459;27;20607;-82
2023/12/15 02:39:16;;;;;;;30.83;14.70;;;3.80;1.00;;;;;;5176535;27;21986;-82
2023/12/15 02:41:45;;;;;;;16.85;11.15;;;3.80;1.00;;;;;;5191572;27;20272;-81
2023/12/15 02:44:12;;;;;;;13.35;10.00;;;3.80;1.00;;;;;;5199582;27;20285;-81
2023/12/15 02:46:39;;;;;;;12.05;9.93;;;3.80;1.00;;;;;;5197879;27;20236;-81
2023/12/15 02:49:06;;;;;;;18.35;10.77;;;3.70;1.00;;;;;;5197780;27;20237;-82
2023/12/15 02:51:33;;;;;;;19.15;11.00;;;3.70;1.00;;;;;;5198697;27;20325;-82
2023/12/15 02:54:01;;;;;;;14.95;10.50;;;3.60;1.00;;;;;;5197967;27;20236;-82
2023/12/15 02:56:29;;;;;;;15.65;12.80;;;3.50;1.00;;;;;;5197798;27;20336;-81
2023/12/15 02:58:57;;;;;;;13.77;11.10;;;3.40;1.00;;;;;;5199160;27;20245;-82
2023/12/15 03:01:26;;;;;;;15.48;11.25;;;3.40;1.00;;;;;;5197134;27;20253;-82
2023/12/15 03:03:53;;;;;;;16.58;12.02;;;3.30;1.00;;;;;;5197645;27;20225;-81
2023/12/15 03:06:20;;;;;;;14.07;10.80;;;3.20;1.00;;;;;;5197015;27;20228;-81
2023/12/15 03:08:47;;;;;;;12.20;10.32;;;3.20;1.00;;;;;;5197563;27;20229;-82
2023/12/15 03:11:15;;;;;;;16.70;11.20;;;3.10;1.00;;;;;;5197431;27;20320;-82
2023/12/15 03:13:42;;;;;;;15.48;11.70;;;3.20;1.00;;;;;;5196679;27;20712;-81
2023/12/15 03:16:11;;;;;;;14.50;10.98;;;3.10;1.00;;;;;;5196496;27;20232;-82
2023/12/15 03:18:39;;;;;;;13.20;10.50;;;3.00;1.00;;;;;;5195075;27;20300;-82
2023/12/15 03:21:07;;;;;;;13.93;10.65;;;3.00;1.00;;;;;;5194181;27;20229;-82
2023/12/15 03:23:34;;;;;;;14.43;9.85;;;3.00;1.00;;;;;;5195281;27;20250;-83
2023/12/15 03:26:01;;;;;;;13.27;9.98;;;2.90;1.00;;;;;;5195692;27;20216;-81
2023/12/15 03:28:28;;;;;;;14.13;9.90;;;2.90;1.00;;;;;;5195140;27;21407;-81
2023/12/15 03:30:54;;;;;;;13.32;10.40;;;2.90;1.00;;;;;;5192321;27;21804;-80
2023/12/15 03:33:25;;;;;;;12.20;8.90;;;2.90;1.00;;;;;;5196320;27;20312;-82
2023/12/15 03:35:52;;;;;;;13.30;9.43;;;2.80;1.00;;;;;;5192244;27;20232;-82
2023/12/15 03:38:19;;;;;;;16.17;10.63;;;2.90;1.00;;;;;;5199745;27;20935;-82
2023/12/15 03:40:46;;;;;;;12.82;9.30;;;2.90;1.00;;;;;;5194663;27;20232;-82
2023/12/15 03:43:13;;;;;;;16.17;10.85;;;2.90;1.00;;;;;;5196033;27;20248;-83
2023/12/15 03:45:40;;;;;;;14.15;9.60;;;2.90;1.00;;;;;;5196230;27;20264;-84
2023/12/15 03:48:07;;;;;;;13.55;9.70;;;2.80;1.00;;;;;;5198221;27;20236;-84
2023/12/15 03:50:36;;;;;;;12.50;10.13;;;2.80;1.00;;;;;;5196719;27;20240;-84
2023/12/15 03:53:02;;;;;;;14.45;10.00;;;2.80;1.00;;;;;;5196144;27;20228;-79
2023/12/15 03:55:29;;;;;;;15.88;10.30;;;2.90;1.00;;;;;;5191610;27;20233;-82
2023/12/15 03:57:56;;;;;;;14.80;10.32;;;2.80;1.00;;;;;;5198142;27;20248;-82
2023/12/15 04:00:23;;;;;;;15.00;10.23;;;2.80;1.00;;;;;;5174741;27;20355;-83
2023/12/15 04:02:51;;;;;;;15.00;10.18;;;2.70;1.00;;;;;;5199657;27;20236;-82
2023/12/15 04:05:18;;;;;;;14.93;10.57;;;2.60;1.00;;;;;;5197877;27;20265;-82
2023/12/15 04:07:47;;;;;;;40.10;28.23;;;2.70;1.00;;;;;;5197867;27;20297;-82
2023/12/15 04:10:14;;;;;;;16.70;11.68;;;2.50;1.00;;;;;;5194367;27;20226;-83
2023/12/15 04:12:41;;;;;;;13.60;10.40;;;2.50;1.00;;;;;;5194515;27;20315;-79
2023/12/15 04:15:09;;;;;;;11.40;8.75;;;2.40;1.00;;;;;;5197263;27;20295;-82
2023/12/15 04:17:36;;;;;;;14.07;8.85;;;2.40;1.00;;;;;;5198746;27;20229;-83
2023/12/15 04:20:03;;;;;;;17.20;11.02;;;2.50;1.00;;;;;;5194139;27;20233;-82
2023/12/15 04:22:31;;;;;;;13.43;9.30;;;2.40;1.00;;;;;;5195701;27;20237;-84
2023/12/15 04:24:59;;;;;;;14.32;10.80;;;2.40;1.00;;;;;;5196345;27;20256;-81
2023/12/15 04:27:28;;;;;;;15.95;10.00;;;2.40;1.00;;;;;;5197480;27;20239;-79
2023/12/15 04:29:55;;;;;;;15.48;10.35;;;2.40;1.00;;;;;;5195564;27;20893;-81
2023/12/15 04:32:21;;;;;;;12.63;10.02;;;2.40;1.00;;;;;;5199631;27;20340;-82
2023/12/15 04:34:48;;;;;;;14.25;10.00;;;2.40;1.00;;;;;;5195569;27;20313;-81
2023/12/15 04:37:17;;;;;;;14.18;10.90;;;2.30;1.00;;;;;;5194226;27;20225;-83
2023/12/15 04:39:46;;;;;;;13.50;10.90;;;2.30;1.00;;;;;;5195178;27;20237;-83
2023/12/15 04:42:14;;;;;;;16.63;10.60;;;2.20;1.00;;;;;;5196316;27;20251;-82
2023/12/15 04:44:42;;;;;;;14.55;11.07;;;2.10;1.00;;;;;;5197340;27;20337;-83
2023/12/15 04:47:09;;;;;;;25.88;12.00;;;2.10;1.00;;;;;;5200106;27;20328;-82
2023/12/15 04:49:36;;;;;;;15.90;10.40;;;2.00;1.00;;;;;;5195372;27;20316;-82
2023/12/15 04:52:04;;;;;;;13.80;10.73;;;1.90;1.00;;;;;;5196853;27;20240;-83
2023/12/15 04:54:32;;;;;;;13.40;12.00;;;1.90;1.00;;;;;;5195952;27;20233;-81
2023/12/15 04:56:59;;;;;;;18.05;11.48;;;1.90;1.00;;;;;;5194676;27;20263;-81
2023/12/15 04:59:28;;;;;;;13.60;11.35;;;1.90;1.00;;;;;;5199179;27;20225;-83
2023/12/15 05:01:55;;;;;;;17.05;11.88;;;1.90;1.00;;;;;;5197165;27;20232;-82
2023/12/15 05:04:22;;;;;;;15.68;11.52;;;2.00;1.00;;;;;;5193474;27;20319;-82
2023/12/15 05:06:50;;;;;;;21.38;14.27;;;2.00;1.00;;;;;;5194704;27;20338;-83
2023/12/15 05:09:17;;;;;;;17.42;12.57;;;2.10;1.00;;;;;;5197402;27;20260;-81
2023/12/15 05:11:44;;;;;;;20.85;13.95;;;2.10;1.00;;;;;;5187638;27;20229;-81
2023/12/15 05:14:11;;;;;;;19.75;14.27;;;2.20;1.00;;;;;;5195683;27;20233;-81
2023/12/15 05:16:40;;;;;;;21.80;15.35;;;2.20;1.00;;;;;;5192494;27;20264;-83
2023/12/15 05:19:07;;;;;;;21.02;14.00;;;2.30;1.00;;;;;;5196534;27;20298;-82
2023/12/15 05:21:34;;;;;;;18.77;14.90;;;2.40;1.00;;;;;;5197530;27;20225;-81
2023/12/15 05:24:01;;;;;;;21.80;14.48;;;2.40;1.00;;;;;;5198478;27;20261;-80
2023/12/15 05:26:28;;;;;;;20.45;14.23;;;2.40;1.00;;;;;;5194844;27;20283;-82
2023/12/15 05:28:56;;;;;;;21.50;13.77;;;2.50;1.00;;;;;;5194950;27;20351;-83
2023/12/15 05:31:23;;;;;;;21.33;15.00;;;2.60;1.00;;;;;;5195231;27;20236;-82
2023/12/15 05:33:51;;;;;;;24.20;14.35;;;2.60;1.00;;;;;;5193589;27;20237;-82
2023/12/15 05:36:19;;;;;;;20.20;14.63;;;2.60;1.00;;;;;;5195632;27;20233;-83
2023/12/15 05:38:46;;;;;;;18.05;12.07;;;2.60;1.00;;;;;;5196786;27;20236;-82
2023/12/15 05:41:14;;;;;;;19.23;13.13;;;2.70;1.00;;;;;;5196429;27;20224;-82
2023/12/15 05:43:41;;;;;;;19.70;13.27;;;2.60;1.00;;;;;;5197031;27;20323;-86
2023/12/15 05:46:08;;;;;;;18.58;12.75;;;2.60;1.00;;;;;;5198791;27;21108;-82
2023/12/15 05:48:36;;;;;;;18.35;13.10;;;2.60;1.00;;;;;;5188110;27;20224;-84
2023/12/15 05:51:08;;;;;;;22.52;16.13;;;2.70;1.00;;;;;;5187674;27;20315;-83
2023/12/15 05:53:35;;;;;;;21.98;14.35;;;2.70;1.00;;;;;;5194718;27;20256;-82
2023/12/15 05:56:08;;;;;;;17.50;13.63;;;2.70;1.00;;;;;;5201417;27;20316;-83
2023/12/15 05:58:35;;;;;;;16.95;11.68;;;2.80;1.00;;;;;;5197649;27;20221;-83
2023/12/15 06:01:02;;;;;;;16.08;11.52;;;2.60;1.00;;;;;;5199516;27;20233;-84
2023/12/15 06:03:29;;;;;;;16.65;11.40;;;2.60;1.00;;;;;;5196278;27;20233;-82
2023/12/15 06:05:55;;;;;;;14.85;12.57;;;2.60;1.00;;;;;;5196385;27;20225;-83
2023/12/15 06:08:24;;;;;;;15.63;12.32;;;2.60;1.00;;;;;;5197243;27;20288;-83
2023/12/15 06:10:52;;;;;;;17.40;12.20;;;2.70;1.00;;;;;;5197638;27;20726;-83
2023/12/15 06:13:19;;;;;;;19.10;12.30;;;2.80;1.00;;;;;;5201661;27;20809;-83
2023/12/15 06:15:47;;;;;;;22.05;13.73;;;2.80;1.00;;;;;;5198443;27;20471;-82
2023/12/15 06:18:16;;;;;;;21.73;12.75;;;2.80;1.00;;;;;;5201343;27;20220;-81
2023/12/15 06:20:44;;;;;;;18.38;12.82;;;2.80;1.00;;;;;;5199329;27;20247;-81
2023/12/15 06:23:11;;;;;;;31.15;18.15;;;2.80;1.00;;;;;;5200794;27;20259;-84
2023/12/15 06:25:40;;;;;;;27.15;14.02;;;2.90;1.00;;;;;;5200810;27;20236;-83
2023/12/15 06:28:09;;;;;;;19.40;13.10;;;3.00;1.00;;;;;;5178989;27;20264;-82
2023/12/15 06:30:39;;;;;;;23.35;14.10;;;3.00;1.00;;;;;;5190189;27;20225;-82
2023/12/15 06:33:06;;;;;;;17.20;11.55;;;3.10;1.00;;;;;;5198689;27;20259;-82
2023/12/15 06:35:34;;;;;;;21.98;13.35;;;3.10;1.00;;;;;;5197938;27;20239;-82
2023/12/15 06:38:01;;;;;;;27.63;17.17;;;3.10;1.00;;;;;;5199481;27;20266;-80
2023/12/15 06:40:35;;;;;;;25.20;16.35;;;3.20;1.00;;;;;;5198948;27;20295;-81
2023/12/15 06:43:03;;;;;;;18.98;13.30;;;3.20;1.00;;;;;;5198812;27;20347;-83
2023/12/15 06:45:31;;;;;;;23.25;14.65;;;3.20;1.00;;;;;;5200191;27;20217;-82
2023/12/15 06:48:01;;;;;;;21.77;14.07;;;3.30;1.00;;;;;;5183830;27;20983;-83
2023/12/15 06:50:30;;;;;;;25.02;14.50;;;3.30;1.00;;;;;;5199069;27;22591;-83
2023/12/15 06:52:57;;;;;;;20.50;13.63;;;3.30;1.00;;;;;;5202119;27;20268;-83
2023/12/15 06:55:25;;;;;;;17.50;14.25;;;3.40;1.00;;;;;;5198989;27;21842;-81
2023/12/15 06:57:52;;;;;;;23.63;15.35;;;3.40;1.00;;;;;;5197830;27;20771;-81
2023/12/15 07:00:23;;;;;;;24.48;16.48;;;3.40;1.00;;;;;;5198064;27;20239;-80
2023/12/15 07:02:51;;;;;;;22.90;15.98;;;3.40;1.00;;;;;;5180194;27;21028;-83
2023/12/15 07:05:18;;;;;;;21.58;14.48;;;3.40;1.00;;;;;;5194667;27;20259;-82
2023/12/15 07:07:45;;;;;;;26.60;16.60;;;3.40;1.00;;;;;;5194605;27;20912;-83
2023/12/15 07:10:16;;;;;;;23.85;15.88;;;3.50;1.00;;;;;;5199206;27;20292;-81
2023/12/15 07:12:46;;;;;;;18.90;14.35;;;3.50;1.00;;;;;;5196501;27;20247;-83
2023/12/15 07:15:19;;;;;;;34.58;18.13;;;3.50;1.00;;;;;;5203501;27;20217;-80
2023/12/15 07:17:48;;;;;;;34.83;15.50;;;3.60;1.00;;;;;;5195825;27;20240;-82
2023/12/15 07:20:15;;;;;;;25.67;15.85;;;3.60;1.00;;;;;;5198871;27;21052;-85
2023/12/15 07:22:42;;;;;;;25.65;15.95;;;3.60;1.00;;;;;;5199387;27;20232;-82
2023/12/15 07:25:12;;;;;;;30.63;16.30;;;3.60;1.00;;;;;;5198634;27;20249;-82
2023/12/15 07:27:41;;;;;;;18.73;13.75;;;3.70;1.00;;;;;;5201044;27;20212;-81
2023/12/15 07:30:09;;;;;;;24.73;15.20;;;3.70;1.00;;;;;;5199243;27;20726;-82
2023/12/15 07:32:39;;;;;;;23.30;16.25;;;3.70;1.00;;;;;;5184605;27;20255;-83
2023/12/15 08:12:18;;;;;;;29.43;17.80;;;3.90;1.00;;;;;;4822139;29;20686;-81
2023/12/15 08:14:45;;;;;;;27.45;18.70;;;3.90;1.00;;;;;;4896757;29;20273;-83
2023/12/15 08:17:12;;;;;;;23.23;15.48;;;3.90;1.00;;;;;;4902089;29;21137;-83
2023/12/15 08:19:40;;;;;;;24.30;16.60;;;4.00;1.00;;;;;;4924306;28;20280;-83
2023/12/15 08:22:07;;;;;;;27.27;16.23;;;4.10;1.00;;;;;;4941729;28;20253;-80
2023/12/15 08:24:34;;;;;;;29.67;18.08;;;4.00;1.00;;;;;;4925587;28;20261;-80
2023/12/15 08:27:03;;;;;;;28.80;16.70;;;4.00;1.00;;;;;;4937231;28;20280;-80
2023/12/15 08:29:33;;;;;;;26.63;18.02;;;4.00;1.00;;;;;;4936914;28;20242;-79
2023/12/15 08:32:00;;;;;;;25.33;17.65;;;4.00;1.00;;;;;;4978688;28;20354;-81
2023/12/15 08:34:27;;;;;;;28.02;18.45;;;4.20;1.00;;;;;;5012693;28;20269;-81
2023/12/15 08:36:54;;;;;;;26.75;18.88;;;4.20;1.00;;;;;;5058377;28;20240;-80
2023/12/15 08:39:22;;;;;;;26.58;17.83;;;4.20;1.00;;;;;;5057376;28;20756;-79
2023/12/15 08:41:51;;;;;;;36.78;18.77;;;4.20;1.00;;;;;;5116285;27;20441;-80
2023/12/15 08:44:18;;;;;;;28.02;17.73;;;4.30;1.00;;;;;;5148750;27;21019;-79
2023/12/15 08:46:47;;;;;;;27.00;17.20;;;4.30;1.00;;;;;;5190835;27;20232;-80
2023/12/15 08:49:14;;;;;;;26.15;19.40;;;4.40;1.00;;;;;;5193835;27;20316;-80
2023/12/15 08:51:42;;;;;;;30.60;20.08;;;4.20;1.00;;;;;;5193396;27;21168;-80
2023/12/15 08:54:10;;;;;;;31.67;20.20;;;4.10;1.00;;;;;;5197224;27;20228;-83
2023/12/15 08:56:38;;;;;;;28.70;18.45;;;4.20;1.00;;;;;;5192519;27;20236;-79
2023/12/15 08:59:05;;;;;;;34.08;22.00;;;4.30;1.00;;;;;;5192222;27;20316;-81
2023/12/15 09:01:33;;;;;;;30.35;19.73;;;4.20;1.00;;;;;;5193276;27;20279;-81
2023/12/15 09:04:08;;;;;;;34.97;18.95;;;4.30;1.00;;;;;;5172213;27;20237;-79
2023/12/15 09:06:35;;;;;;;36.47;23.20;;;4.20;1.00;;;;;;5191686;27;20237;-80
2023/12/15 09:09:04;;;;;;;31.63;19.35;;;4.30;1.00;;;;;;5196178;27;20248;-79
2023/12/15 09:11:31;;;;;;;27.75;19.25;;;4.40;1.00;;;;;;5192775;27;21000;-80
2023/12/15 09:14:01;;;;;;;37.80;22.65;;;4.50;1.00;;;;;;5191619;27;20309;-78
2023/12/15 09:16:28;;;;;;;31.63;21.52;;;4.60;1.00;;;;;;5191550;27;20233;-81
2023/12/15 09:18:55;;;;;;;46.78;21.75;;;4.60;1.00;;;;;;5192039;27;20239;-80
2023/12/15 09:21:25;;;;;;;38.13;22.17;;;4.70;1.00;;;;;;5193320;27;20237;-80
2023/12/15 09:23:56;;;;;;;37.10;22.10;;;4.70;1.00;;;;;;5190191;27;20265;-80
2023/12/15 09:26:26;;;;;;;36.63;19.83;;;4.80;1.00;;;;;;5173472;27;20237;-80
2023/12/15 09:28:54;;;;;;;29.80;19.60;;;4.90;1.00;;;;;;5192170;27;20252;-81
2023/12/15 09:31:22;;;;;;;27.17;18.92;;;4.90;1.00;;;;;;5188796;27;20238;-80
2023/12/15 09:33:49;;;;;;;31.83;20.15;;;4.90;1.00;;;;;;5192978;27;20236;-79
2023/12/15 09:36:17;;;;;;;34.20;21.92;;;5.00;1.00;;;;;;5191199;27;21040;-82
2023/12/15 09:38:45;;;;;;;33.75;19.83;;;4.90;1.00;;;;;;5191643;27;20252;-79
2023/12/15 09:41:13;;;;;;;30.52;20.10;;;4.90;1.00;;;;;;5190618;27;20320;-80
2023/12/15 09:43:40;;;;;;;27.30;19.02;;;5.00;1.00;;;;;;5190513;27;20232;-81
2023/12/15 09:46:08;;;;;;;27.35;17.23;;;5.00;1.00;;;;;;5191498;27;20236;-80
2023/12/15 09:48:35;;;;;;;29.67;19.25;;;5.00;1.00;;;;;;5191643;27;20240;-79
2023/12/15 09:51:04;;;;;;;30.20;19.55;;;5.00;1.00;;;;;;5192163;27;20228;-79
2023/12/15 09:53:36;;;;;;;31.30;20.40;;;5.00;1.00;;;;;;5190988;27;20229;-80
2023/12/15 09:56:07;;;;;;;30.13;20.73;;;5.00;1.00;;;;;;5195406;27;20324;-80
2023/12/15 09:58:36;;;;;;;25.83;18.75;;;5.00;1.00;;;;;;5190650;27;20316;-79
2023/12/15 10:01:03;;;;;;;24.30;18.70;;;4.90;1.00;;;;;;5195688;27;20234;-81
2023/12/15 10:03:30;;;;;;;28.42;18.10;;;5.00;1.00;;;;;;5193794;27;20229;-81
2023/12/15 10:06:00;;;;;;;28.85;18.70;;;4.90;1.00;;;;;;5194774;27;20403;-80
2023/12/15 10:08:41;;;;;;;32.47;20.00;;;5.00;1.00;;;;;;5191091;27;20421;-79
2023/12/15 10:11:10;;;;;;;28.52;19.90;;;5.20;1.00;;;;;;5194174;27;20303;-79
2023/12/15 10:13:40;;;;;;;26.67;18.38;;;5.20;1.00;;;;;;5176609;27;20233;-79
2023/12/15 10:16:09;;;;;;;26.23;17.40;;;5.30;1.00;;;;;;5190649;27;20892;-79
2023/12/15 10:18:37;;;;;;;26.00;17.50;;;5.20;1.00;;;;;;5190443;27;20967;-79
2023/12/15 10:21:07;;;;;;;29.77;17.13;;;5.20;1.00;;;;;;5194198;27;21036;-80
2023/12/15 10:23:34;;;;;;;29.77;19.55;;;5.20;1.00;;;;;;5198045;27;20329;-81
2023/12/15 10:26:06;;;;;;;30.77;18.77;;;5.30;1.00;;;;;;5191754;27;20282;-81
2023/12/15 10:28:42;;;;;;;31.80;18.45;;;5.40;1.00;;;;;;5192366;27;20238;-81
2023/12/15 10:31:09;;;;;;;29.38;19.85;;;5.50;1.00;;;;;;5190344;27;20240;-80
2023/12/15 10:33:37;;;;;;;33.55;20.90;;;5.50;1.00;;;;;;5190718;27;20264;-80
2023/12/15 10:36:13;;;;;;;31.73;19.17;;;5.40;1.00;;;;;;5188460;27;20310;-80
2023/12/15 10:38:41;;;;;;;26.60;18.27;;;5.40;1.00;;;;;;5191721;27;20228;-80
2023/12/15 10:41:10;;;;;;;32.47;18.08;;;5.40;1.00;;;;;;5194066;27;20237;-79
2023/12/15 10:43:40;;;;;;;30.60;18.60;;;5.40;1.00;;;;;;5193236;27;20260;-80
2023/12/15 10:46:10;;;;;;;26.02;19.08;;;5.50;1.00;;;;;;5192689;27;20278;-79
2023/12/15 10:48:40;;;;;;;26.25;18.05;;;5.60;1.00;;;;;;5192541;27;20229;-81
2023/12/15 10:51:08;;;;;;;27.17;18.42;;;5.60;1.00;;;;;;5193430;27;20243;-80
2023/12/15 10:53:39;;;;;;;53.47;20.60;;;5.60;1.00;;;;;;5190223;27;20229;-80
2023/12/15 10:56:08;;;;;;;28.80;19.05;;;5.60;1.00;;;;;;5193113;27;20669;-81
2023/12/15 10:58:35;;;;;;;30.45;18.55;;;5.60;1.00;;;;;;5191575;27;20309;-79
2023/12/15 11:01:09;;;;;;;27.60;17.75;;;5.70;1.00;;;;;;5192976;27;20329;-80
2023/12/15 11:03:36;;;;;;;28.50;18.48;;;5.60;1.00;;;;;;5197118;27;20235;-80
2023/12/15 11:06:03;;;;;;;28.65;17.98;;;5.60;1.00;;;;;;5194488;27;20238;-80
2023/12/15 11:08:30;;;;;;;30.05;17.17;;;5.60;1.00;;;;;;5195054;27;20323;-80
2023/12/15 11:11:00;;;;;;;26.67;18.67;;;5.60;1.00;;;;;;5199488;27;20265;-80
2023/12/15 11:13:58;;;;;;;30.70;18.42;;;5.50;1.00;;;;;;5172219;27;20349;-80
2023/12/15 11:16:30;;;;;;;27.02;17.73;;;5.50;1.00;;;;;;5195736;27;20697;-81
2023/12/15 11:18:59;;;;;;;25.25;18.60;;;5.60;1.00;;;;;;5192647;27;20235;-78
2023/12/15 11:21:26;;;;;;;30.83;18.75;;;5.60;1.00;;;;;;5174945;27;20245;-79
2023/12/15 11:23:58;;;;;;;30.50;19.20;;;5.70;1.00;;;;;;5196636;27;20235;-80
2023/12/15 11:26:30;;;;;;;25.17;17.73;;;5.70;1.00;;;;;;5193638;27;20233;-81
2023/12/15 11:29:04;;;;;;;25.20;17.00;;;5.80;1.00;;;;;;5194490;27;20248;-80
2023/12/15 11:31:36;;;;;;;25.85;17.27;;;5.70;1.00;;;;;;5191368;27;20245;-80
2023/12/15 11:34:04;;;;;;;25.05;17.15;;;5.60;1.00;;;;;;5195267;27;20258;-83
2023/12/15 11:36:39;;;;;;;38.42;18.48;;;5.50;1.00;;;;;;5194751;27;21156;-81
2023/12/15 11:39:05;;;;;;;23.45;16.92;;;5.50;1.00;;;;;;5195788;27;21095;-81
2023/12/15 11:41:33;;;;;;;22.67;17.30;;;5.40;1.00;;;;;;5193585;27;20233;-80
2023/12/15 11:44:01;;;;;;;26.13;17.55;;;5.40;1.00;;;;;;5195529;27;20242;-80
2023/12/15 11:46:27;;;;;;;25.85;17.27;;;5.40;1.00;;;;;;5198444;27;21151;-79
2023/12/15 11:49:00;;;;;;;26.05;18.08;;;5.50;1.00;;;;;;5194162;27;20232;-79
2023/12/15 11:51:28;;;;;;;26.27;18.50;;;5.40;1.00;;;;;;5197746;27;20233;-80
2023/12/15 11:54:00;;;;;;;24.92;17.20;;;5.40;1.00;;;;;;5194304;27;20231;-78
2023/12/15 11:56:27;;;;;;;26.33;17.98;;;5.30;1.00;;;;;;5192982;27;20233;-79
2023/12/15 11:58:54;;;;;;;28.15;18.90;;;5.30;1.00;;;;;;5194532;27;20232;-80
2023/12/15 12:01:22;;;;;;;29.15;19.33;;;5.40;1.00;;;;;;5196855;27;20315;-79
2023/12/15 12:03:49;;;;;;;27.80;19.10;;;5.40;1.00;;;;;;5194708;27;20271;-81
2023/12/15 12:06:21;;;;;;;31.98;20.40;;;5.40;1.00;;;;;;5191813;27;20267;-80
2023/12/15 12:08:48;;;;;;;25.48;19.02;;;5.40;1.00;;;;;;5169448;27;20339;-84
2023/12/15 12:11:16;;;;;;;27.65;18.88;;;5.30;1.00;;;;;;5195185;27;20322;-81
2023/12/15 12:13:43;;;;;;;25.88;18.23;;;5.30;1.00;;;;;;5180105;27;20742;-81
2023/12/15 12:16:10;;;;;;;30.67;19.00;;;5.40;1.00;;;;;;5195597;27;20233;-80
2023/12/15 12:18:38;;;;;;;31.45;18.95;;;5.40;1.00;;;;;;5193226;27;20260;-81
2023/12/15 12:21:08;;;;;;;29.67;19.70;;;5.40;1.00;;;;;;5196529;27;20275;-81
2023/12/15 12:23:38;;;;;;;39.33;20.92;;;5.40;1.00;;;;;;5192023;27;20260;-80
2023/12/15 12:26:09;;;;;;;36.97;21.40;;;5.40;1.00;;;;;;5197231;27;20953;-83
2023/12/15 12:28:44;;;;;;;34.88;20.92;;;5.50;1.00;;;;;;5194787;27;20269;-81
2023/12/15 12:31:11;;;;;;;35.22;21.75;;;5.50;1.00;;;;;;5196979;27;20233;-80
2023/12/15 12:33:38;;;;;;;37.88;21.85;;;5.40;1.00;;;;;;5196122;27;20249;-81
2023/12/15 12:36:06;;;;;;;29.85;19.33;;;5.40;1.00;;;;;;5196833;27;20277;-81
2023/12/15 12:38:34;;;;;;;34.95;20.42;;;5.40;1.00;;;;;;5171727;27;20262;-82
2023/12/15 12:41:05;;;;;;;36.90;21.33;;;5.40;1.00;;;;;;5193382;27;20236;-82
2023/12/15 12:43:32;;;;;;;36.42;20.50;;;5.30;1.00;;;;;;5194926;27;20225;-81
2023/12/15 12:46:00;;;;;;;34.33;19.98;;;5.40;1.00;;;;;;5195562;27;20278;-81
2023/12/15 12:48:29;;;;;;;29.65;19.88;;;5.40;1.00;;;;;;5194298;27;20240;-80
2023/12/15 12:50:59;;;;;;;35.30;23.80;;;5.40;1.00;;;;;;5196419;27;20438;-80
2023/12/15 12:53:26;;;;;;;36.00;21.83;;;5.40;1.00;;;;;;5193153;27;20272;-82
2023/12/15 12:55:53;;;;;;;37.15;21.63;;;5.40;1.00;;;;;;5197066;27;20243;-81
2023/12/15 12:58:22;;;;;;;33.95;20.73;;;5.40;1.00;;;;;;5178524;27;20660;-81
2023/12/15 13:00:51;;;;;;;41.65;23.30;;;5.50;1.00;;;;;;5195677;27;20236;-81
2023/12/15 13:03:18;;;;;;;33.47;22.13;;;5.50;1.00;;;;;;5197186;27;20237;-81
2023/12/15 13:05:45;;;;;;;32.95;22.70;;;5.60;1.00;;;;;;5196589;27;20333;-81
2023/12/15 13:08:13;;;;;;;34.95;22.08;;;5.60;1.00;;;;;;5196292;27;20237;-82
2023/12/15 13:10:40;;;;;;;29.02;19.40;;;5.60;1.00;;;;;;5195038;27;20233;-81
2023/12/15 13:13:08;;;;;;;31.15;21.58;;;5.60;1.00;;;;;;5196812;27;20232;-82
2023/12/15 13:15:36;;;;;;;32.75;21.90;;;5.50;1.00;;;;;;5196498;27;20237;-83
2023/12/15 13:18:03;;;;;;;27.20;19.13;;;5.50;1.00;;;;;;5201500;27;20260;-84
2023/12/15 13:20:34;;;;;;;31.55;20.38;;;5.40;1.00;;;;;;5195077;27;20307;-82
2023/12/15 13:23:02;;;;;;;30.30;19.65;;;5.50;1.00;;;;;;5195902;27;20279;-83
2023/12/15 13:25:34;;;;;;;33.78;20.75;;;5.50;1.00;;;;;;5200068;27;20262;-83
2023/12/15 13:28:10;;;;;;;24.38;17.17;;;5.60;1.00;;;;;;5195593;27;20300;-82
2023/12/15 13:30:43;;;;;;;27.60;19.23;;;5.60;1.00;;;;;;5193821;27;20267;-83